Time;durP1;ratioP1;P1;durP2;ratioP2;P2;SDS_P1;SDS_P2;PMS_P1;PMS_P2;Temp;Humidity;BMP_temperature;BMP_pressure;BME280_temperature;BME280_humidity;BME280_pressure;Samples;Min_cycle;Max_cycle;Signal;HPM_P1;HPM_P2
2022/06/10 00:02:20;;;;;;;7.87;4.20;;;12.80;99.30;;;;;;5076483;28;20197;-38
2022/06/10 00:04:45;;;;;;;4.20;3.10;;;12.80;99.40;;;;;;5076027;28;20262;-38
2022/06/10 00:07:11;;;;;;;3.20;2.90;;;12.70;99.40;;;;;;5076695;28;20179;-38
2022/06/10 00:09:37;;;;;;;4.23;3.23;;;12.70;99.40;;;;;;5077449;28;20565;-38
2022/06/10 00:12:03;;;;;;;4.47;3.57;;;12.70;99.30;;;;;;5077463;28;20636;-37
2022/06/10 00:14:28;;;;;;;4.23;2.77;;;12.70;99.40;;;;;;5076630;28;20541;-38
2022/06/10 00:16:54;;;;;;;6.73;3.53;;;12.70;99.50;;;;;;5078122;28;20802;-37
2022/06/10 00:19:19;;;;;;;4.13;3.47;;;12.70;99.40;;;;;;5078000;28;20186;-39
2022/06/10 00:21:45;;;;;;;5.10;3.50;;;12.60;99.30;;;;;;5077536;28;20258;-39
2022/06/10 00:24:11;;;;;;;4.07;2.90;;;12.60;99.40;;;;;;5077583;28;20269;-38
2022/06/10 00:26:36;;;;;;;4.80;3.03;;;12.60;99.60;;;;;;5077624;28;20631;-38
2022/06/10 00:29:03;;;;;;;3.20;2.90;;;12.50;99.60;;;;;;5077021;28;20229;-41
2022/06/10 00:31:28;;;;;;;5.70;3.30;;;12.50;99.60;;;;;;5076194;28;20212;-39
2022/06/10 00:33:54;;;;;;;4.77;2.90;;;12.50;99.60;;;;;;5076050;28;20455;-38
2022/06/10 00:36:21;;;;;;;5.87;3.40;;;12.50;99.60;;;;;;5076815;28;20276;-37
2022/06/10 00:38:46;;;;;;;4.87;3.67;;;12.50;99.70;;;;;;5091331;28;20601;-38
2022/06/10 00:41:12;;;;;;;3.73;3.00;;;12.50;99.60;;;;;;5094209;28;20454;-37
2022/06/10 00:43:38;;;;;;;6.07;3.40;;;12.50;99.60;;;;;;5097179;28;20189;-39
2022/06/10 00:46:48;;;;;;;5.17;3.50;;;12.40;99.50;;;;;;5096331;28;20423;-38
2022/06/10 00:49:15;;;;;;;7.00;3.27;;;12.40;99.60;;;;;;5079144;28;20555;-39
2022/06/10 00:51:53;;;;;;;4.17;3.07;;;12.40;99.70;;;;;;5098929;28;20700;-38
2022/06/10 00:54:23;;;;;;;5.50;3.50;;;12.30;99.60;;;;;;5100967;28;20427;-38
2022/06/10 00:56:58;;;;;;;4.50;3.53;;;12.30;99.80;;;;;;5099594;28;20411;-37
2022/06/10 00:59:27;;;;;;;5.30;3.50;;;12.30;99.70;;;;;;5099596;28;20435;-37
2022/06/10 01:01:56;;;;;;;4.30;3.30;;;12.20;99.60;;;;;;5099419;28;20422;-39
2022/06/10 01:04:22;;;;;;;4.97;3.70;;;12.20;99.70;;;;;;5099854;28;20854;-39
2022/06/10 01:06:47;;;;;;;3.43;3.10;;;12.20;99.80;;;;;;5098933;28;20419;-38
2022/06/10 01:09:14;;;;;;;3.57;2.60;;;12.20;99.80;;;;;;5100799;28;20319;-38
2022/06/10 01:11:48;;;;;;;4.40;3.60;;;12.20;99.80;;;;;;5100823;28;20204;-38
2022/06/10 01:14:39;;;;;;;4.13;3.73;;;12.10;99.70;;;;;;5101565;28;20859;-38
2022/06/10 01:17:43;;;;;;;3.20;2.90;;;12.10;99.70;;;;;;5100858;28;20510;-37
2022/06/10 01:20:27;;;;;;;3.80;3.37;;;12.10;99.70;;;;;;5100433;28;20505;-37
2022/06/10 01:23:32;;;;;;;3.90;2.70;;;12.00;99.70;;;;;;5101581;28;20422;-37
2022/06/10 01:26:03;;;;;;;4.50;3.20;;;12.00;99.90;;;;;;5077119;28;20681;-41
2022/06/10 01:28:56;;;;;;;3.47;3.17;;;12.00;99.90;;;;;;5100965;28;20740;-38
2022/06/10 01:31:45;;;;;;;4.30;3.90;;;11.90;99.90;;;;;;5101041;28;20424;-38
2022/06/10 01:34:20;;;;;;;4.80;3.40;;;11.90;99.90;;;;;;5089530;28;20780;-38
2022/06/10 01:36:49;;;;;;;3.83;3.50;;;11.90;99.90;;;;;;5099603;28;20439;-38
2022/06/10 01:39:28;;;;;;;3.10;2.80;;;11.80;99.80;;;;;;5099962;28;20442;-37
2022/06/10 01:42:05;;;;;;;3.43;3.00;;;11.80;99.90;;;;;;5099395;28;20467;-37
2022/06/10 01:44:40;;;;;;;4.60;3.80;;;11.80;99.90;;;;;;5101320;28;20477;-37
2022/06/10 01:47:46;;;;;;;4.33;3.43;;;11.80;99.90;;;;;;5099702;28;20831;-37
2022/06/10 01:50:25;;;;;;;3.77;3.40;;;11.70;99.90;;;;;;5099248;28;20940;-39
2022/06/10 01:52:54;;;;;;;3.93;3.10;;;11.70;99.90;;;;;;5099275;28;20445;-39
2022/06/10 01:55:31;;;;;;;4.10;2.83;;;11.70;99.90;;;;;;5100027;28;20508;-38
2022/06/10 01:58:17;;;;;;;4.20;3.40;;;11.70;99.90;;;;;;5100835;28;20896;-38
2022/06/10 02:00:45;;;;;;;7.07;3.50;;;11.70;99.90;;;;;;5100604;28;20484;-41
2022/06/10 02:03:39;;;;;;;3.73;3.43;;;11.70;99.90;;;;;;5099030;28;20496;-38
2022/06/10 02:06:20;;;;;;;3.70;3.40;;;11.60;99.90;;;;;;5100975;28;20615;-37
2022/06/10 02:08:59;;;;;;;3.50;3.20;;;11.60;99.90;;;;;;5099458;28;20438;-38
2022/06/10 02:11:26;;;;;;;6.57;3.40;;;11.60;99.90;;;;;;5099029;28;20421;-37
2022/06/10 02:13:59;;;;;;;6.63;3.53;;;11.60;99.90;;;;;;5099045;28;20905;-38
2022/06/10 02:16:31;;;;;;;4.20;3.73;;;11.50;99.90;;;;;;5099379;28;20636;-38
2022/06/10 02:19:01;;;;;;;5.93;3.70;;;11.50;99.90;;;;;;5099108;28;20427;-37
2022/06/10 02:21:36;;;;;;;4.30;3.80;;;11.50;99.90;;;;;;5099555;28;20836;-38
2022/06/10 02:24:10;;;;;;;3.77;3.10;;;11.40;99.90;;;;;;5099209;28;20560;-40
2022/06/10 02:26:37;;;;;;;3.80;3.40;;;11.40;99.90;;;;;;5097989;28;20410;-39
2022/06/10 02:29:08;;;;;;;6.90;3.80;;;11.40;99.90;;;;;;5099305;28;20486;-39
2022/06/10 02:31:38;;;;;;;4.03;3.63;;;11.40;99.90;;;;;;5098340;28;20422;-38
2022/06/10 02:34:05;;;;;;;5.80;3.67;;;11.40;99.90;;;;;;5098398;28;20427;-35
2022/06/10 02:36:42;;;;;;;3.40;3.10;;;11.40;99.90;;;;;;5099691;28;20530;-38
2022/06/10 02:39:18;;;;;;;5.30;2.97;;;11.40;99.90;;;;;;5098838;28;20525;-37
2022/06/10 02:41:47;;;;;;;3.90;3.50;;;11.40;99.90;;;;;;5099550;28;20493;-38
2022/06/10 02:44:27;;;;;;;3.93;3.57;;;11.40;99.90;;;;;;5097818;28;20450;-38
2022/06/10 02:47:05;;;;;;;4.53;3.57;;;11.40;99.90;;;;;;5099566;28;20532;-38
2022/06/10 02:49:31;;;;;;;6.07;3.70;;;11.40;99.90;;;;;;5098088;28;20577;-40
2022/06/10 02:51:57;;;;;;;9.33;3.97;;;11.30;99.90;;;;;;5099044;28;20904;-37
2022/06/10 02:54:30;;;;;;;8.53;4.37;;;11.30;99.90;;;;;;5098561;28;20442;-40
2022/06/10 02:56:56;;;;;;;4.50;3.50;;;11.30;99.90;;;;;;5098757;28;20233;-38
2022/06/10 03:02:25;;;;;;;3.93;3.63;;;11.30;99.90;;;;;;5097801;28;20418;-38
2022/06/10 03:05:09;;;;;;;3.70;3.40;;;11.20;99.90;;;;;;5098583;28;20407;-38
2022/06/10 03:08:01;;;;;;;4.97;3.60;;;11.20;99.90;;;;;;5098078;28;20677;-36
2022/06/10 03:10:32;;;;;;;4.60;3.33;;;11.20;99.90;;;;;;5098283;28;20462;-38
2022/06/10 03:13:40;;;;;;;3.57;3.27;;;11.20;99.90;;;;;;5096391;28;20419;-39
2022/06/10 03:16:08;;;;;;;4.80;3.17;;;11.20;99.90;;;;;;5093450;28;20426;-40
2022/06/10 03:19:01;;;;;;;5.33;3.70;;;11.20;99.90;;;;;;5097780;28;20425;-38
2022/06/10 03:21:46;;;;;;;3.97;3.43;;;11.20;99.90;;;;;;5096550;28;20403;-38
2022/06/10 03:24:11;;;;;;;4.80;3.50;;;11.20;99.90;;;;;;5097635;28;20491;-38
2022/06/10 03:26:51;;;;;;;4.10;3.60;;;11.20;99.90;;;;;;5097093;28;20817;-39
2022/06/10 03:29:23;;;;;;;4.20;3.70;;;11.20;99.90;;;;;;5096348;28;20228;-38
2022/06/10 03:31:53;;;;;;;4.50;3.57;;;11.20;99.90;;;;;;5096161;28;20763;-39
2022/06/10 03:34:30;;;;;;;5.87;3.40;;;11.10;99.90;;;;;;5096171;28;20430;-38
2022/06/10 03:36:58;;;;;;;5.90;3.70;;;11.10;99.90;;;;;;5096088;28;20434;-39
2022/06/10 03:39:24;;;;;;;7.00;3.53;;;11.20;99.90;;;;;;5097331;28;20452;-38
2022/06/10 03:42:14;;;;;;;4.83;3.80;;;11.10;99.90;;;;;;5096478;28;20422;-39
2022/06/10 03:44:39;;;;;;;6.20;4.37;;;11.20;99.90;;;;;;5097014;28;20530;-39
2022/06/10 03:47:07;;;;;;;5.53;3.40;;;11.20;99.90;;;;;;5095879;28;20553;-39
2022/06/10 03:50:04;;;;;;;3.77;3.47;;;11.20;99.90;;;;;;5097387;28;20236;-37
2022/06/10 03:52:31;;;;;;;4.73;3.43;;;11.20;99.90;;;;;;5096385;28;20422;-37
2022/06/10 03:54:57;;;;;;;3.80;3.50;;;11.20;99.90;;;;;;5096422;28;20407;-39
2022/06/10 03:57:23;;;;;;;5.20;4.37;;;11.20;99.90;;;;;;5096849;28;20584;-39
2022/06/10 03:59:49;;;;;;;4.20;3.57;;;11.30;99.90;;;;;;5096047;28;20468;-39
2022/06/10 04:02:15;;;;;;;4.87;3.40;;;11.30;99.90;;;;;;5095367;28;20195;-38
2022/06/10 04:04:42;;;;;;;3.97;3.47;;;11.40;99.90;;;;;;5095668;28;20461;-40
2022/06/10 04:07:09;;;;;;;3.97;3.60;;;11.50;99.90;;;;;;5093985;28;20446;-38
2022/06/10 04:09:35;;;;;;;4.50;4.03;;;11.50;99.90;;;;;;5094532;28;20501;-37
2022/06/10 04:12:00;;;;;;;3.63;2.90;;;11.60;99.90;;;;;;5094272;28;20447;-40
2022/06/10 04:14:26;;;;;;;4.93;3.90;;;11.60;99.90;;;;;;5094865;28;20238;-39
2022/06/10 04:16:52;;;;;;;5.80;4.13;;;11.70;99.90;;;;;;5095119;28;20346;-38
2022/06/10 04:19:18;;;;;;;4.60;4.30;;;11.80;99.90;;;;;;5095658;28;20256;-37
2022/06/10 04:21:44;;;;;;;5.93;3.80;;;11.80;99.90;;;;;;5094574;28;20700;-38
2022/06/10 04:24:09;;;;;;;6.13;3.20;;;11.80;99.90;;;;;;5094095;28;20192;-38
2022/06/10 04:26:36;;;;;;;3.90;3.50;;;11.90;99.90;;;;;;5094866;28;20429;-39
2022/06/10 04:29:02;;;;;;;5.17;3.27;;;11.90;99.80;;;;;;5095524;28;20229;-38
2022/06/10 04:31:27;;;;;;;6.73;4.00;;;12.00;99.90;;;;;;5095445;28;20430;-37
2022/06/10 04:33:53;;;;;;;4.23;3.83;;;12.00;99.80;;;;;;5095390;28;20423;-38
2022/06/10 04:36:19;;;;;;;4.47;3.60;;;12.10;99.80;;;;;;5095694;28;20267;-39
2022/06/10 04:38:45;;;;;;;6.70;4.07;;;12.20;99.60;;;;;;5096463;28;20186;-39
2022/06/10 04:41:11;;;;;;;3.90;3.50;;;12.30;99.60;;;;;;5095578;28;20415;-37
2022/06/10 04:43:37;;;;;;;8.90;3.67;;;12.40;99.60;;;;;;5096636;28;20419;-39
2022/06/10 04:46:06;;;;;;;4.10;3.40;;;12.50;99.40;;;;;;5096798;28;20430;-38
2022/06/10 04:48:32;;;;;;;4.87;3.50;;;12.60;99.10;;;;;;5096872;28;20434;-38
2022/06/10 04:50:58;;;;;;;4.27;3.70;;;12.70;98.60;;;;;;5096955;28;20769;-38
2022/06/10 04:53:23;;;;;;;5.53;3.50;;;12.80;98.30;;;;;;5097347;28;20427;-38
2022/06/10 04:55:49;;;;;;;4.93;3.80;;;12.80;98.40;;;;;;5097144;28;20851;-39
2022/06/10 04:58:15;;;;;;;4.70;4.30;;;12.90;98.40;;;;;;5096980;28;20177;-38
2022/06/10 05:00:47;;;;;;;3.90;3.50;;;13.00;98.50;;;;;;5096784;28;20184;-38
2022/06/10 05:03:13;;;;;;;3.83;3.53;;;13.10;98.20;;;;;;5096546;28;20411;-39
2022/06/10 05:05:39;;;;;;;4.97;3.70;;;13.20;98.20;;;;;;5095896;28;20436;-39
2022/06/10 05:08:06;;;;;;;5.00;3.77;;;13.30;98.00;;;;;;5095040;28;20423;-37
2022/06/10 05:10:31;;;;;;;3.50;3.20;;;13.40;97.70;;;;;;5094446;28;20612;-38
2022/06/10 05:12:58;;;;;;;5.20;3.63;;;13.60;97.60;;;;;;5094414;28;20908;-40
2022/06/10 05:15:28;;;;;;;4.17;3.83;;;13.70;97.50;;;;;;5094002;28;20443;-39
2022/06/10 05:17:56;;;;;;;5.83;4.20;;;13.80;97.20;;;;;;5093319;28;20513;-40
2022/06/10 05:20:45;;;;;;;5.60;4.10;;;13.90;96.60;;;;;;5092721;28;20434;-41
2022/06/10 05:23:13;;;;;;;5.63;4.17;;;13.90;96.60;;;;;;5093793;28;20418;-39
2022/06/10 05:25:39;;;;;;;5.73;3.70;;;13.90;96.70;;;;;;5090572;28;20444;-38
2022/06/10 05:28:05;;;;;;;5.30;3.37;;;13.90;96.50;;;;;;5077301;28;20724;-36
2022/06/10 05:30:33;;;;;;;4.73;3.50;;;13.90;96.50;;;;;;5073157;28;20471;-36
2022/06/10 05:33:00;;;;;;;6.47;3.80;;;14.00;96.70;;;;;;5076628;28;20519;-41
2022/06/10 05:35:26;;;;;;;5.70;4.07;;;14.20;96.70;;;;;;5081972;28;20876;-40
2022/06/10 05:37:52;;;;;;;4.93;3.90;;;14.30;96.30;;;;;;5078692;28;20432;-39
2022/06/10 05:40:18;;;;;;;3.40;3.03;;;14.40;96.10;;;;;;5074053;28;20412;-40
2022/06/10 05:42:43;;;;;;;7.17;3.30;;;14.50;96.00;;;;;;5075279;28;20188;-38
2022/06/10 05:45:14;;;;;;;5.93;3.10;;;14.60;96.00;;;;;;5075769;28;20412;-38
2022/06/10 05:47:41;;;;;;;7.40;3.70;;;14.70;96.00;;;;;;5075722;28;20197;-36
2022/06/10 05:50:13;;;;;;;4.60;3.37;;;14.80;95.80;;;;;;5077359;28;20459;-38
2022/06/10 05:52:40;;;;;;;5.73;3.33;;;14.90;95.50;;;;;;5076715;28;20510;-37
2022/06/10 05:55:06;;;;;;;5.30;3.40;;;15.00;95.30;;;;;;5077583;28;20435;-37
2022/06/10 05:57:32;;;;;;;5.43;3.30;;;15.20;95.50;;;;;;5077309;28;20432;-37
2022/06/10 05:59:58;;;;;;;6.03;2.97;;;15.30;95.10;;;;;;5075201;28;20427;-37
2022/06/10 06:02:24;;;;;;;5.33;3.67;;;15.50;94.90;;;;;;5076019;28;20247;-38
2022/06/10 06:04:50;;;;;;;5.50;3.20;;;15.60;94.90;;;;;;5076550;28;20832;-35
2022/06/10 06:07:23;;;;;;;4.87;3.00;;;15.70;95.10;;;;;;5075837;28;20503;-36
2022/06/10 06:09:49;;;;;;;6.33;3.83;;;15.90;94.50;;;;;;5076745;28;20237;-36
2022/06/10 06:12:15;;;;;;;5.63;3.77;;;16.00;94.00;;;;;;5077208;28;21115;-39
2022/06/10 06:14:40;;;;;;;6.27;3.40;;;16.20;93.80;;;;;;5075189;28;20431;-38
2022/06/10 06:17:06;;;;;;;5.17;3.30;;;16.30;93.40;;;;;;5073156;28;20447;-37
2022/06/10 06:19:33;;;;;;;3.80;3.00;;;16.40;93.40;;;;;;5071793;28;20170;-38
2022/06/10 06:21:59;;;;;;;5.63;3.37;;;16.60;93.40;;;;;;5072479;28;20489;-46
2022/06/10 06:24:25;;;;;;;4.50;2.83;;;16.90;93.10;;;;;;5072979;28;20436;-46
2022/06/10 06:26:51;;;;;;;6.60;3.43;;;17.10;92.40;;;;;;5073610;28;20699;-46
2022/06/10 06:29:18;;;;;;;3.70;2.53;;;17.30;92.10;;;;;;5073901;28;20472;-46
2022/06/10 06:31:44;;;;;;;4.70;2.97;;;17.40;91.20;;;;;;5076770;28;20196;-46
2022/06/10 06:34:09;;;;;;;5.37;2.70;;;17.50;90.80;;;;;;5074900;28;20574;-46
2022/06/10 06:36:45;;;;;;;4.57;2.30;;;17.60;90.10;;;;;;5076052;28;20174;-46
2022/06/10 06:39:16;;;;;;;4.00;3.00;;;17.80;90.20;;;;;;5075551;28;20251;-46
2022/06/10 06:41:42;;;;;;;5.87;3.00;;;17.90;90.00;;;;;;5075669;28;20496;-46
2022/06/10 06:44:09;;;;;;;5.37;2.80;;;18.10;89.70;;;;;;5076306;28;20450;-46
2022/06/10 06:46:36;;;;;;;4.40;2.97;;;18.20;89.80;;;;;;5076069;28;20707;-46
2022/06/10 06:49:03;;;;;;;5.20;2.80;;;18.40;88.20;;;;;;5074650;28;20474;-46
2022/06/10 06:51:29;;;;;;;4.30;2.70;;;18.60;87.10;;;;;;5073029;28;20462;-46
2022/06/10 06:53:55;;;;;;;3.67;2.20;;;18.80;86.20;;;;;;5073261;28;20427;-46
2022/06/10 06:56:21;;;;;;;4.70;2.60;;;19.10;86.10;;;;;;5073118;28;20549;-46
2022/06/10 06:58:46;;;;;;;5.90;2.47;;;19.40;84.20;;;;;;5074381;28;20289;-46
2022/06/10 07:01:12;;;;;;;4.53;3.07;;;19.50;80.70;;;;;;5074947;28;20899;-46
2022/06/10 07:03:37;;;;;;;4.13;2.63;;;19.60;80.80;;;;;;5078011;28;20179;-46
2022/06/10 07:06:03;;;;;;;3.10;2.30;;;19.60;79.80;;;;;;5097479;28;20556;-45
2022/06/10 07:08:32;;;;;;;5.93;2.53;;;19.70;79.40;;;;;;5097510;28;20174;-47
2022/06/10 07:10:58;;;;;;;4.67;1.97;;;19.80;80.10;;;;;;5097109;28;20202;-46
2022/06/10 07:13:25;;;;;;;3.57;2.40;;;20.00;79.60;;;;;;5095696;28;20424;-45
2022/06/10 07:15:51;;;;;;;3.93;2.50;;;20.30;78.90;;;;;;5096307;28;20447;-42
2022/06/10 07:18:17;;;;;;;5.63;3.40;;;20.50;77.30;;;;;;5095154;28;20481;-44
2022/06/10 07:20:44;;;;;;;2.80;2.37;;;20.80;76.20;;;;;;5094131;28;20839;-44
2022/06/10 07:23:09;;;;;;;5.60;2.30;;;21.10;76.40;;;;;;5093914;28;20484;-45
2022/06/10 07:25:35;;;;;;;6.53;3.23;;;21.40;75.50;;;;;;5095057;28;20712;-44
2022/06/10 07:28:01;;;;;;;5.03;2.40;;;21.70;73.70;;;;;;5095460;28;20236;-44
2022/06/10 07:30:30;;;;;;;4.87;2.47;;;21.90;72.10;;;;;;5095437;28;20262;-44
2022/06/10 07:32:57;;;;;;;4.03;1.93;;;22.10;70.90;;;;;;5097525;28;20187;-46
2022/06/10 07:35:23;;;;;;;6.50;2.40;;;22.40;69.30;;;;;;5096960;28;20426;-46
2022/06/10 07:37:49;;;;;;;3.40;2.30;;;22.50;67.80;;;;;;5096394;28;20423;-43
2022/06/10 07:43:15;;;;;;;5.23;3.23;;;22.80;65.40;;;;;;5095006;28;20548;-45
2022/06/10 07:45:42;;;;;;;4.73;2.27;;;23.00;65.10;;;;;;5095987;28;20441;-45
2022/06/10 07:48:08;;;;;;;4.27;2.90;;;23.10;63.50;;;;;;5094789;28;20427;-45
2022/06/10 07:50:33;;;;;;;7.63;3.23;;;23.20;62.60;;;;;;5094994;28;20490;-45
2022/06/10 07:52:59;;;;;;;6.57;2.77;;;23.30;62.30;;;;;;5093128;28;20510;-43
2022/06/10 07:55:25;;;;;;;7.23;2.27;;;23.40;62.30;;;;;;5093806;28;20177;-45
2022/06/10 07:57:51;;;;;;;4.17;2.20;;;23.60;60.90;;;;;;5093407;28;20705;-45
2022/06/10 08:00:18;;;;;;;4.20;1.77;;;23.80;60.40;;;;;;5094654;28;20411;-44
2022/06/10 08:02:44;;;;;;;4.50;2.47;;;24.00;60.10;;;;;;5094787;28;20786;-42
2022/06/10 08:05:13;;;;;;;3.90;1.80;;;24.30;59.60;;;;;;5094968;28;20463;-43
2022/06/10 08:07:39;;;;;;;7.97;2.07;;;24.40;59.40;;;;;;5095127;28;20191;-45
2022/06/10 08:10:07;;;;;;;3.63;1.87;;;24.20;58.90;;;;;;5096343;28;20567;-44
2022/06/10 08:12:33;;;;;;;4.77;2.53;;;24.20;59.00;;;;;;5094298;28;20429;-45
2022/06/10 08:14:58;;;;;;;5.67;2.13;;;24.30;56.50;;;;;;5094858;28;20498;-44
2022/06/10 08:17:24;;;;;;;5.17;2.20;;;24.50;56.30;;;;;;5095879;28;20465;-43
2022/06/10 08:19:50;;;;;;;3.57;2.00;;;24.80;56.00;;;;;;5095144;28;20553;-45
2022/06/10 08:22:35;;;;;;;4.90;2.40;;;25.20;57.40;;;;;;5094587;28;20325;-44
2022/06/10 08:25:03;;;;;;;3.03;1.90;;;25.20;53.60;;;;;;5094378;28;20198;-43
2022/06/10 08:27:29;;;;;;;3.43;2.60;;;24.60;52.90;;;;;;5093657;28;20469;-45
2022/06/10 08:29:55;;;;;;;4.07;2.20;;;23.90;53.50;;;;;;5094389;28;20509;-46
2022/06/10 08:32:22;;;;;;;5.27;2.17;;;23.10;54.90;;;;;;5094198;28;20175;-45
2022/06/10 08:34:48;;;;;;;7.30;2.07;;;22.80;55.10;;;;;;5093767;28;20497;-45
2022/06/10 08:37:13;;;;;;;4.17;2.30;;;23.20;55.70;;;;;;5091737;28;20495;-45
2022/06/10 08:39:39;;;;;;;6.57;3.07;;;23.60;54.50;;;;;;5093086;28;20172;-45
2022/06/10 08:42:24;;;;;;;3.73;2.03;;;23.50;54.30;;;;;;5094111;28;20178;-46
2022/06/10 08:44:56;;;;;;;4.53;2.37;;;23.20;54.80;;;;;;5091535;28;20480;-43
2022/06/10 08:47:57;;;;;;;3.03;2.00;;;23.00;54.80;;;;;;5091950;28;20444;-46
2022/06/10 08:50:47;;;;;;;2.67;2.00;;;23.00;56.00;;;;;;5092018;28;20558;-48
2022/06/10 08:53:37;;;;;;;5.63;2.53;;;23.10;56.00;;;;;;5093959;28;20417;-44
2022/06/10 08:56:16;;;;;;;3.63;2.33;;;23.80;55.50;;;;;;5093763;28;20400;-44
2022/06/10 08:58:59;;;;;;;4.20;1.83;;;24.00;54.70;;;;;;5094608;28;20432;-45
2022/06/10 09:01:26;;;;;;;3.23;2.20;;;24.10;52.80;;;;;;5094026;28;20464;-44
2022/06/10 09:04:07;;;;;;;4.03;2.40;;;23.90;53.90;;;;;;5093792;28;20431;-45
2022/06/10 09:06:44;;;;;;;5.40;2.27;;;24.70;54.20;;;;;;5091667;28;20434;-46
2022/06/10 09:09:11;;;;;;;2.90;1.70;;;25.20;52.40;;;;;;5093373;28;20471;-46
2022/06/10 09:11:51;;;;;;;5.97;2.47;;;25.20;51.10;;;;;;5095219;28;20406;-48
2022/06/10 09:14:23;;;;;;;6.00;3.20;;;25.10;51.50;;;;;;5098575;28;20460;-46
2022/06/10 09:16:53;;;;;;;6.10;2.57;;;25.00;51.20;;;;;;5099928;28;20472;-45
2022/06/10 09:19:49;;;;;;;3.97;1.97;;;25.10;51.50;;;;;;5099971;28;20433;-46
2022/06/10 09:22:38;;;;;;;3.77;2.07;;;26.00;52.50;;;;;;5097388;28;20409;-46
2022/06/10 09:25:24;;;;;;;3.90;2.00;;;27.30;50.50;;;;;;5097819;28;20508;-47
2022/06/10 09:27:55;;;;;;;5.83;2.70;;;27.50;48.70;;;;;;5097289;28;20429;-45
2022/06/10 09:30:25;;;;;;;4.13;2.53;;;27.10;48.50;;;;;;5098729;28;20466;-46
2022/06/10 09:33:11;;;;;;;5.63;2.20;;;26.90;48.50;;;;;;5097550;28;20488;-45
2022/06/10 09:35:55;;;;;;;3.30;1.93;;;26.50;49.10;;;;;;5097743;28;20424;-44
2022/06/10 09:38:48;;;;;;;5.00;2.27;;;26.30;49.70;;;;;;5097089;28;20435;-44
2022/06/10 09:41:19;;;;;;;4.10;2.20;;;26.00;49.80;;;;;;5094842;28;20710;-45
2022/06/10 09:43:59;;;;;;;4.00;2.60;;;25.80;49.70;;;;;;5096526;28;20519;-46
2022/06/10 09:46:46;;;;;;;4.50;2.70;;;25.50;48.80;;;;;;5096674;28;20443;-42
2022/06/10 09:49:29;;;;;;;4.40;2.43;;;25.20;49.10;;;;;;5094916;28;20510;-46
2022/06/10 09:52:30;;;;;;;4.10;2.30;;;24.70;50.00;;;;;;5097296;28;20456;-42
2022/06/10 09:55:15;;;;;;;5.07;1.97;;;24.30;50.00;;;;;;5097152;28;20825;-43
2022/06/10 09:58:12;;;;;;;6.33;3.03;;;24.10;50.70;;;;;;5096676;28;20456;-44
2022/06/10 10:00:41;;;;;;;2.77;1.93;;;24.00;50.60;;;;;;5096204;28;20411;-44
2022/06/10 10:03:41;;;;;;;2.50;1.83;;;24.00;51.20;;;;;;5092577;28;20443;-44
2022/06/10 10:06:10;;;;;;;4.23;1.93;;;24.60;51.10;;;;;;5086477;28;20416;-43
2022/06/10 10:09:21;;;;;;;3.03;1.83;;;26.40;50.20;;;;;;5087129;28;20425;-42
2022/06/10 10:11:49;;;;;;;3.57;2.23;;;28.90;48.20;;;;;;5085017;28;20412;-46
2022/06/10 10:14:33;;;;;;;3.17;2.03;;;31.30;44.50;;;;;;5084295;28;20908;-44
2022/06/10 10:17:11;;;;;;;3.27;2.00;;;32.60;41.70;;;;;;5088103;28;20407;-44
2022/06/10 10:19:43;;;;;;;3.20;2.00;;;32.10;40.50;;;;;;5090503;28;20680;-44
2022/06/10 10:22:44;;;;;;;2.67;2.17;;;31.10;41.50;;;;;;5086132;28;20437;-44
2022/06/10 10:25:16;;;;;;;3.57;2.37;;;30.20;42.30;;;;;;5086058;28;20730;-43
2022/06/10 10:27:44;;;;;;;5.00;2.00;;;29.30;42.30;;;;;;5086853;28;20514;-47
2022/06/10 10:30:18;;;;;;;3.20;2.00;;;28.60;42.80;;;;;;5087221;28;20949;-46
2022/06/10 10:32:50;;;;;;;3.30;1.87;;;28.00;43.30;;;;;;5097498;28;20491;-43
2022/06/10 10:35:21;;;;;;;6.37;2.50;;;27.60;44.00;;;;;;5097620;28;20399;-47
2022/06/10 10:37:53;;;;;;;2.10;1.90;;;27.20;43.70;;;;;;5096963;28;20479;-43
2022/06/10 10:40:21;;;;;;;3.93;2.40;;;26.90;44.60;;;;;;5096098;28;20513;-43
2022/06/10 10:42:51;;;;;;;2.60;1.80;;;26.70;44.90;;;;;;5094508;28;20476;-43
2022/06/10 10:45:28;;;;;;;4.17;2.20;;;26.60;45.80;;;;;;5096105;28;20487;-41
2022/06/10 10:47:56;;;;;;;2.50;2.10;;;26.50;45.80;;;;;;5095794;28;20453;-44
2022/06/10 10:50:28;;;;;;;3.07;2.17;;;26.30;45.80;;;;;;5097108;28;20484;-44
2022/06/10 10:52:54;;;;;;;3.50;2.33;;;26.30;46.60;;;;;;5097795;28;20834;-44
2022/06/10 10:55:26;;;;;;;3.77;2.20;;;26.30;46.90;;;;;;5096831;28;20498;-43
2022/06/10 10:58:17;;;;;;;4.37;2.50;;;26.40;47.20;;;;;;5094098;28;20436;-45
2022/06/10 11:00:45;;;;;;;5.60;2.70;;;26.50;47.10;;;;;;5095477;28;20391;-44
2022/06/10 11:03:51;;;;;;;4.60;2.90;;;27.50;45.60;;;;;;5096357;28;20517;-48
2022/06/10 11:06:26;;;;;;;4.20;2.57;;;29.90;44.80;;;;;;5096090;28;20833;-48
2022/06/10 11:08:58;;;;;;;2.90;2.07;;;32.50;41.70;;;;;;5095329;28;20439;-47
2022/06/10 11:11:32;;;;;;;2.67;1.60;;;33.60;39.30;;;;;;5097391;28;20607;-46
2022/06/10 11:14:01;;;;;;;3.73;2.17;;;34.90;38.50;;;;;;5093728;28;20401;-48
2022/06/10 11:16:43;;;;;;;4.20;2.60;;;35.90;37.10;;;;;;5094621;28;20400;-48
2022/06/10 11:19:16;;;;;;;2.87;2.17;;;37.20;35.30;;;;;;5094494;28;20403;-46
2022/06/10 11:22:06;;;;;;;3.50;1.80;;;38.40;32.40;;;;;;5096191;28;20404;-46
2022/06/10 11:24:44;;;;;;;2.43;2.00;;;39.20;31.50;;;;;;5094643;28;20416;-47
2022/06/10 11:27:22;;;;;;;3.33;1.90;;;39.50;30.90;;;;;;5095667;28;20510;-47
2022/06/10 11:30:08;;;;;;;3.57;2.00;;;38.80;30.50;;;;;;5094880;28;20478;-48
2022/06/10 11:32:51;;;;;;;5.13;2.00;;;37.30;30.30;;;;;;5092807;28;20419;-46
2022/06/10 11:35:29;;;;;;;3.33;2.30;;;35.10;31.50;;;;;;5092071;28;20396;-47
2022/06/10 11:37:58;;;;;;;5.83;2.73;;;33.50;32.30;;;;;;5094611;28;20421;-46
2022/06/10 11:40:45;;;;;;;6.23;2.37;;;32.10;33.30;;;;;;5095269;28;20684;-47
2022/06/10 11:43:20;;;;;;;3.20;1.90;;;30.60;35.30;;;;;;5094511;28;20499;-47
2022/06/10 11:46:01;;;;;;;3.07;2.03;;;29.60;36.10;;;;;;5092512;28;20399;-47
2022/06/10 11:48:48;;;;;;;4.60;2.00;;;28.90;36.90;;;;;;5094500;28;20431;-44
2022/06/10 11:51:34;;;;;;;3.73;2.03;;;28.50;37.20;;;;;;5084750;28;20403;-50
2022/06/10 11:54:38;;;;;;;3.40;2.30;;;27.90;38.00;;;;;;5067161;28;20442;-46
2022/06/10 12:00:13;;;;;;;3.80;2.00;;;27.50;38.50;;;;;;5072957;28;20407;-48
2022/06/10 12:03:11;;;;;;;8.43;2.30;;;27.10;38.80;;;;;;5072500;28;21122;-45
2022/06/10 12:06:06;;;;;;;2.47;2.13;;;27.00;39.20;;;;;;5070409;28;20456;-46
2022/06/10 12:08:56;;;;;;;4.33;2.20;;;27.00;39.50;;;;;;5073123;28;20667;-46
2022/06/10 12:11:46;;;;;;;2.70;2.20;;;27.00;39.30;;;;;;5074201;28;20923;-47
2022/06/10 12:14:37;;;;;;;4.70;2.50;;;27.10;39.50;;;;;;5074210;28;20450;-46
2022/06/10 12:17:06;;;;;;;3.73;2.37;;;27.20;40.10;;;;;;5073301;28;20964;-47
2022/06/10 12:19:36;;;;;;;3.80;2.47;;;27.40;40.60;;;;;;5073090;28;20499;-46
2022/06/10 12:22:15;;;;;;;5.83;2.20;;;27.50;40.50;;;;;;5073436;28;20426;-49
2022/06/10 12:24:48;;;;;;;3.60;1.90;;;27.60;39.70;;;;;;5074195;28;20780;-47
2022/06/10 12:27:18;;;;;;;4.93;2.20;;;27.70;39.60;;;;;;5082979;28;20419;-47
2022/06/10 12:30:02;;;;;;;6.90;2.10;;;27.70;40.30;;;;;;5091184;28;20628;-45
2022/06/10 12:32:53;;;;;;;3.90;2.00;;;27.90;40.40;;;;;;5092074;28;20423;-48
2022/06/10 12:35:23;;;;;;;4.20;2.00;;;28.10;40.40;;;;;;5075223;28;20492;-48
2022/06/10 12:37:59;;;;;;;2.90;1.80;;;28.10;39.70;;;;;;5082397;28;20386;-46
2022/06/10 12:40:42;;;;;;;3.37;1.90;;;28.30;39.60;;;;;;5082063;28;20438;-47
2022/06/10 12:43:26;;;;;;;2.57;2.17;;;28.70;40.30;;;;;;5084484;28;20422;-48
2022/06/10 12:45:55;;;;;;;2.50;2.03;;;28.90;40.10;;;;;;5083310;28;20400;-49
2022/06/10 12:48:25;;;;;;;6.90;1.90;;;29.00;39.90;;;;;;5087197;28;20481;-48
2022/06/10 12:50:55;;;;;;;4.23;2.40;;;29.00;39.60;;;;;;5088383;28;20928;-48
2022/06/10 12:53:37;;;;;;;3.53;2.17;;;29.20;38.80;;;;;;5084938;28;20830;-47
2022/06/10 12:56:19;;;;;;;5.10;2.17;;;29.70;39.40;;;;;;5085006;28;20405;-48
2022/06/10 12:59:06;;;;;;;3.50;1.97;;;30.50;39.20;;;;;;5086529;28;20486;-47
2022/06/10 13:01:32;;;;;;;3.80;1.90;;;30.90;36.70;;;;;;5088356;28;20514;-48
2022/06/10 13:04:05;;;;;;;3.40;2.47;;;30.90;37.20;;;;;;5088704;28;20487;-46
2022/06/10 13:06:31;;;;;;;2.37;2.17;;;30.80;36.50;;;;;;5086621;28;20171;-47
2022/06/10 13:09:10;;;;;;;2.30;1.60;;;30.40;37.20;;;;;;5089996;28;20415;-45
2022/06/10 13:11:46;;;;;;;2.37;1.70;;;30.30;37.30;;;;;;5092094;28;20441;-46
2022/06/10 13:14:16;;;;;;;2.93;1.90;;;30.10;37.00;;;;;;5084231;28;20687;-47
2022/06/10 13:16:49;;;;;;;3.17;1.83;;;29.80;36.50;;;;;;5099504;28;20417;-45
2022/06/10 13:19:38;;;;;;;4.40;1.80;;;29.50;37.10;;;;;;5096744;28;20425;-46
2022/06/10 13:22:23;;;;;;;2.80;1.70;;;29.20;37.20;;;;;;5096647;28;20377;-46
2022/06/10 13:24:54;;;;;;;3.10;1.83;;;29.00;37.20;;;;;;5099075;28;20498;-48
2022/06/10 13:27:44;;;;;;;2.77;2.10;;;29.00;37.30;;;;;;5098924;28;20457;-46
2022/06/10 13:30:12;;;;;;;2.77;1.80;;;30.50;36.60;;;;;;5097616;28;20576;-50